Terminal Aerodrome Forecast
Issued by NWS

Home | Current Version | Previous Version | Text Only | Print | Product List | Glossary On
Versions: 1 2 3 4 5 6 7 8 9 10 11 12 13 14
000
FTUS46 KMTR 171724
TAFOAK
TAF
KOAK 171724Z 1718/1824 VRB03KT P6SM SKC
     FM172000 27005KT P6SM FEW200
     FM180300 29010KT P6SM SCT004 BKN150
     FM180600 25010KT 6SM BR OVC008
     FM180700 29010KT P6SM OVC012
     FM181700 29012KT P6SM SCT015 BKN200
     FM182000 27015KT P6SM BKN200=

USA.gov is the U.S. government's official web portal to all federal, state and local government web resources and services.